Amur-2507 — XUEC6 — position and weather

sailwx.info

Track history (hours):
 
Tides and Currents Weather Stations Pressure Air Temp Water Temp Dewpoint Dewpoint Depression Visibility Wind Speed Wind Dir Waves Ship Positions

Amur-2507

Last reported at 2015-Apr-10 18:16 UTC. Time now 2015-Apr-21 01:25 UTC.
Position N 44°48' E 035°14'.
Warning: this ship's position is 10 days out of date.

Length 115 m; draft 3.4 m.

Type: Cargo ship. MMSI: 515694000.

Date/timePositionNaut miles runAvg speedWind from/ knotsBaromVisibWave heightAir tempDewpointWater temp
2015-Apr-10 18:16N 44°48' E 035°14'5 6.9
2015-Apr-10 17:33N 44°47' E 035°07'7 7.1
2015-Apr-10 16:33N 44°49' E 034°57'1 0.7
2015-Apr-10 15:33N 44°49' E 034°56'0 0.0
2015-Apr-10 14:33N 44°49' E 034°56'0 0.0
2015-Apr-10 12:15N 44°49' E 034°56'0 0.0
2015-Apr-10 11:27N 44°49' E 034°56'0 0.0
2015-Apr-10 09:12N 44°49' E 034°56'0 0.0
2015-Apr-10 08:12N 44°49' E 034°56'0 0.0
2015-Apr-10 07:18N 44°49' E 034°56'0 0.0
2015-Apr-10 06:12N 44°49' E 034°56'0 0.0
2015-Apr-10 05:12N 44°49' E 034°56'0 0.0
2015-Apr-10 03:33N 44°49' E 034°56'0 0.0
2015-Apr-10 01:18N 44°49' E 034°56'0 0.0
2015-Apr-10 00:33N 44°49' E 034°56'0 0.0
2015-Apr-09 23:18N 44°49' E 034°56'0 0.0
2015-Apr-09 22:24N 44°49' E 034°56'0 0.0
2015-Apr-09 20:33N 44°49' E 034°56'0 0.0
2015-Apr-09 19:06N 44°49' E 034°56'0 0.0
2015-Apr-09 18:33N 44°49' E 034°56'0 0.0
2015-Apr-09 17:30N 44°49' E 034°56'0 0.0
2015-Apr-09 16:30N 44°49' E 034°56'0 0.0
2015-Apr-09 15:30N 44°49' E 034°56'0 0.0
2015-Apr-09 14:21N 44°49' E 034°56'0 0.0
2015-Apr-09 13:30N 44°49' E 034°56'0 0.0
2015-Apr-09 12:33N 44°49' E 034°56'3 3.2
2015-Apr-09 11:33N 44°48' E 034°53'6 6.5
2015-Apr-09 10:33N 44°44' E 034°45'7 7.0
2015-Apr-09 09:33N 44°42' E 034°36'8 7.6
2015-Apr-09 08:33N 44°38' E 034°26'1 1.5
2015-Apr-09 07:33N 44°38' E 034°24'0 0.1
2015-Apr-09 06:33N 44°38' E 034°24'0 0.0
2015-Apr-09 05:33N 44°38' E 034°25'0 0.0
2015-Apr-09 04:33N 44°38' E 034°25'0 0.1
2015-Apr-09 03:33N 44°38' E 034°24'0 0.1
2015-Apr-09 02:33N 44°38' E 034°25'0 0.1
2015-Apr-09 01:33N 44°38' E 034°25'0 0.0
2015-Apr-09 00:33N 44°38' E 034°25'0 0.0
2015-Apr-08 23:33N 44°38' E 034°25'0 0.1
2015-Apr-08 22:33N 44°38' E 034°25'0 0.0
2015-Apr-08 21:33N 44°38' E 034°25'0 0.0
2015-Apr-08 20:33N 44°38' E 034°25'0 0.0
2015-Apr-08 19:33N 44°38' E 034°25'0 0.0
2015-Apr-08 18:33N 44°38' E 034°25'0 0.0
2015-Apr-08 17:33N 44°38' E 034°25'0 0.1
2015-Apr-08 16:33N 44°38' E 034°25'0 0.0
2015-Apr-08 15:33N 44°38' E 034°25'0 0.0
2015-Apr-08 14:33N 44°38' E 034°25'0 0.0
2015-Apr-08 13:33N 44°38' E 034°24'0 0.0
2015-Apr-08 12:33N 44°38' E 034°24'0 0.0
2015-Apr-08 11:33N 44°38' E 034°24'0 0.0
2015-Apr-08 10:33N 44°38' E 034°24'0 0.1
2015-Apr-08 09:33N 44°38' E 034°25'0 0.1
2015-Apr-08 08:33N 44°38' E 034°25'0 0.0
2015-Apr-08 07:33N 44°38' E 034°25'0 0.0
2015-Apr-08 06:33N 44°38' E 034°25'0 0.0
2015-Apr-08 05:33N 44°38' E 034°25'0 0.0
2015-Apr-08 04:30N 44°38' E 034°25'0 0.1
2015-Apr-08 03:33N 44°38' E 034°25'0 0.0
2015-Apr-08 02:33N 44°38' E 034°25'0 0.0
2015-Apr-08 01:30N 44°38' E 034°25'0 0.0
2015-Apr-08 00:33N 44°38' E 034°25'0 0.0
2015-Apr-07 23:33N 44°38' E 034°25'0 0.0
2015-Apr-07 22:33N 44°38' E 034°25'0 0.0
2015-Apr-07 21:30N 44°38' E 034°25'0 0.0
2015-Apr-07 20:33N 44°38' E 034°25'0 0.0
2015-Apr-07 19:33N 44°38' E 034°25'0 0.0
2015-Apr-07 18:33N 44°38' E 034°25'0 0.0
2015-Apr-07 17:33N 44°38' E 034°25'0 0.0
2015-Apr-07 16:33N 44°38' E 034°25'0 0.0
2015-Apr-07 15:33N 44°38' E 034°25'0 0.0
2015-Apr-07 14:33N 44°38' E 034°25'0 0.0
2015-Apr-07 13:33N 44°38' E 034°25'0 0.0
2015-Apr-07 12:33N 44°38' E 034°25'2 1.5
2015-Apr-07 11:33N 44°36' E 034°24'7 7.3
2015-Apr-07 10:33N 44°31' E 034°18'6 0.3
2015-Apr-06 17:26N 44°28' E 034°11'292 6.5
2015-Apr-04 20:33N 41°15' E 029°11'17 6.8
2015-Apr-04 18:04N 41°01' E 028°60'3 6.5
2015-Apr-04 17:32N 40°57' E 028°59'3 2.5
2015-Apr-04 16:20N 40°59' E 028°56'0 0.0
2015-Apr-04 10:12N 40°59' E 028°56'0 0.0
2015-Apr-04 06:13N 40°59' E 028°56'0 0.0
2015-Apr-03 03:29N 40°59' E 028°56'0 0.0
2015-Apr-02 23:33N 40°59' E 028°56'0 0.0
2015-Apr-02 20:16N 40°59' E 028°56'0 0.0
2015-Apr-02 19:27N 40°59' E 028°56'0 0.0
2015-Apr-02 16:22N 40°59' E 028°56'0 0.0
2015-Apr-02 14:16N 40°59' E 028°56'0 0.0
2015-Apr-02 12:21N 40°59' E 028°56'0 0.0
2015-Apr-02 09:21N 40°59' E 028°56'0 0.0
2015-Apr-02 08:18N 40°59' E 028°56'0 0.0
2015-Apr-02 06:25N 40°59' E 028°56'  
Track history (hours):
 
Tides and Currents Weather Stations Pressure Air Temp Water Temp Dewpoint Dewpoint Depression Visibility Wind Speed Wind Dir Waves Ship Positions

Amur-2507

Last reported at 2015-Apr-10 18:16 UTC. Time now 2015-Apr-21 01:25 UTC.
Position N 44°48' E 035°14'.
Warning: this ship's position is 10 days out of date.

Length 115 m; draft 3.4 m.

Type: Cargo ship. MMSI: 515694000.

Date/timePositionNaut miles runAvg speedWind from/ knotsBaromVisibWave heightAir tempDewpointWater temp
2015-Apr-10 18:16N 44°48' E 035°14'5 6.9
2015-Apr-10 17:33N 44°47' E 035°07'7 7.1
2015-Apr-10 16:33N 44°49' E 034°57'1 0.7
2015-Apr-10 15:33N 44°49' E 034°56'0 0.0
2015-Apr-10 14:33N 44°49' E 034°56'0 0.0
2015-Apr-10 12:15N 44°49' E 034°56'0 0.0
2015-Apr-10 11:27N 44°49' E 034°56'0 0.0
2015-Apr-10 09:12N 44°49' E 034°56'0 0.0
2015-Apr-10 08:12N 44°49' E 034°56'0 0.0
2015-Apr-10 07:18N 44°49' E 034°56'0 0.0
2015-Apr-10 06:12N 44°49' E 034°56'0 0.0
2015-Apr-10 05:12N 44°49' E 034°56'0 0.0
2015-Apr-10 03:33N 44°49' E 034°56'0 0.0
2015-Apr-10 01:18N 44°49' E 034°56'0 0.0
2015-Apr-10 00:33N 44°49' E 034°56'0 0.0
2015-Apr-09 23:18N 44°49' E 034°56'0 0.0
2015-Apr-09 22:24N 44°49' E 034°56'0 0.0
2015-Apr-09 20:33N 44°49' E 034°56'0 0.0
2015-Apr-09 19:06N 44°49' E 034°56'0 0.0
2015-Apr-09 18:33N 44°49' E 034°56'0 0.0
2015-Apr-09 17:30N 44°49' E 034°56'0 0.0
2015-Apr-09 16:30N 44°49' E 034°56'0 0.0
2015-Apr-09 15:30N 44°49' E 034°56'0 0.0
2015-Apr-09 14:21N 44°49' E 034°56'0 0.0
2015-Apr-09 13:30N 44°49' E 034°56'0 0.0
2015-Apr-09 12:33N 44°49' E 034°56'3 3.2
2015-Apr-09 11:33N 44°48' E 034°53'6 6.5
2015-Apr-09 10:33N 44°44' E 034°45'7 7.0
2015-Apr-09 09:33N 44°42' E 034°36'8 7.6
2015-Apr-09 08:33N 44°38' E 034°26'1 1.5
2015-Apr-09 07:33N 44°38' E 034°24'0 0.1
2015-Apr-09 06:33N 44°38' E 034°24'0 0.0
2015-Apr-09 05:33N 44°38' E 034°25'0 0.0
2015-Apr-09 04:33N 44°38' E 034°25'0 0.1
2015-Apr-09 03:33N 44°38' E 034°24'0 0.1
2015-Apr-09 02:33N 44°38' E 034°25'0 0.1
2015-Apr-09 01:33N 44°38' E 034°25'0 0.0
2015-Apr-09 00:33N 44°38' E 034°25'0 0.0
2015-Apr-08 23:33N 44°38' E 034°25'0 0.1
2015-Apr-08 22:33N 44°38' E 034°25'0 0.0
2015-Apr-08 21:33N 44°38' E 034°25'0 0.0
2015-Apr-08 20:33N 44°38' E 034°25'0 0.0
2015-Apr-08 19:33N 44°38' E 034°25'0 0.0
2015-Apr-08 18:33N 44°38' E 034°25'0 0.0
2015-Apr-08 17:33N 44°38' E 034°25'0 0.1
2015-Apr-08 16:33N 44°38' E 034°25'0 0.0
2015-Apr-08 15:33N 44°38' E 034°25'0 0.0
2015-Apr-08 14:33N 44°38' E 034°25'0 0.0
2015-Apr-08 13:33N 44°38' E 034°24'0 0.0
2015-Apr-08 12:33N 44°38' E 034°24'0 0.0
2015-Apr-08 11:33N 44°38' E 034°24'0 0.0
2015-Apr-08 10:33N 44°38' E 034°24'0 0.1
2015-Apr-08 09:33N 44°38' E 034°25'0 0.1
2015-Apr-08 08:33N 44°38' E 034°25'0 0.0
2015-Apr-08 07:33N 44°38' E 034°25'0 0.0
2015-Apr-08 06:33N 44°38' E 034°25'0 0.0
2015-Apr-08 05:33N 44°38' E 034°25'0 0.0
2015-Apr-08 04:30N 44°38' E 034°25'0 0.1
2015-Apr-08 03:33N 44°38' E 034°25'0 0.0
2015-Apr-08 02:33N 44°38' E 034°25'0 0.0
2015-Apr-08 01:30N 44°38' E 034°25'0 0.0
2015-Apr-08 00:33N 44°38' E 034°25'0 0.0
2015-Apr-07 23:33N 44°38' E 034°25'0 0.0
2015-Apr-07 22:33N 44°38' E 034°25'0 0.0
2015-Apr-07 21:30N 44°38' E 034°25'0 0.0
2015-Apr-07 20:33N 44°38' E 034°25'0 0.0
2015-Apr-07 19:33N 44°38' E 034°25'0 0.0
2015-Apr-07 18:33N 44°38' E 034°25'0 0.0
2015-Apr-07 17:33N 44°38' E 034°25'0 0.0
2015-Apr-07 16:33N 44°38' E 034°25'0 0.0
2015-Apr-07 15:33N 44°38' E 034°25'0 0.0
2015-Apr-07 14:33N 44°38' E 034°25'0 0.0
2015-Apr-07 13:33N 44°38' E 034°25'0 0.0
2015-Apr-07 12:33N 44°38' E 034°25'2 1.5
2015-Apr-07 11:33N 44°36' E 034°24'7 7.3
2015-Apr-07 10:33N 44°31' E 034°18'6 0.3
2015-Apr-06 17:26N 44°28' E 034°11'292 6.5
2015-Apr-04 20:33N 41°15' E 029°11'17 6.8
2015-Apr-04 18:04N 41°01' E 028°60'3 6.5
2015-Apr-04 17:32N 40°57' E 028°59'3 2.5
2015-Apr-04 16:20N 40°59' E 028°56'0 0.0
2015-Apr-04 10:12N 40°59' E 028°56'0 0.0
2015-Apr-04 06:13N 40°59' E 028°56'0 0.0
2015-Apr-03 03:29N 40°59' E 028°56'0 0.0
2015-Apr-02 23:33N 40°59' E 028°56'0 0.0
2015-Apr-02 20:16N 40°59' E 028°56'0 0.0
2015-Apr-02 19:27N 40°59' E 028°56'0 0.0
2015-Apr-02 16:22N 40°59' E 028°56'0 0.0
2015-Apr-02 14:16N 40°59' E 028°56'0 0.0
2015-Apr-02 12:21N 40°59' E 028°56'0 0.0
2015-Apr-02 09:21N 40°59' E 028°56'0 0.0
2015-Apr-02 08:18N 40°59' E 028°56'0 0.0
2015-Apr-02 06:25N 40°59' E 028°56'  

Dump ship's entire track history